Impacts TAF Board INFO
FOR SITUATIONAL AWARENESS. NOT TO BE USED FOR FLIGHT PLANNING PURPOSES.
IDs:

KTPA - Tampa Intl Arpt, FL, US

Issued at 1121 UTC 20 Sep 2017
Updated at 1429 UTC 20 Sep 2017
Potential Impact None Slight Moderate High
Time1353Z 20/15Z 20/16Z 20/17Z 20/18Z 20/19Z 20/20Z 20/21Z 20/22Z 20/23Z 21/00Z 21/01Z 21/02Z 21/03Z>>
Type OBS PRVL PRVL PRVL PRVL PRVL PRVL PRVL PRVL PRVL PRVL PRVL PRVL PRVL
VIS 10 >6 >6 >6 >6 >6 >6 >6 >6 >6 >6 >6 >6 >6
CIG -- -- -- -- -- -- -- -- -- -- -- -- -- --
Cover FEW FEW FEW FEW SCT SCT SCT SCT SCT SCT SCT SCT SCT SCT
FltCat VFR VFR VFR VFR VFR VFR VFR VFR VFR VFR VFR VFR VFR VFR
WX -- -- -- -- -- -- -- -- -- -- -- -- -- --
WDir VRB 40 40 40 330 330 330 330 330 330 330 330 80 80
WSpd 5 4 4 4 5 5 5 5 5 5 5 5 6 6
WGst -- -- -- -- -- -- -- -- -- -- -- -- -- --

Raw TAF
KTPA 201121Z 2012/2112 04004KT P6SM FEW080 FEW150
  FM201800 33005KT P6SM SCT040 SCT250
  FM210200 08006KT P6SM FEW045 SCT200


Raw METAR
KTPA 201353Z VRB05KT 10SM FEW230 28/22 A3003 RMK AO2 SLP169 T02830222 $
KTPA 201253Z 02005KT 10SM CLR 26/23 A3003 RMK AO2 SLP167 T02610228 $
KTPA 201153Z 03004KT 10SM CLR 25/22 A3001 RMK AO2 SLP163 T02500217 10267 20239 53012 $

METAR Board
Radar Display
Forecast Discussion

FOR SITUATIONAL AWARENESS. NOT TO BE USED FOR FLIGHT PLANNING PURPOSES.